Rock Falls, Iowa
Current Conditions -  °F | °C
As of 7:53 AM on Thursday 27 Nov 2014 (Local Time) from KMCW Reporting Station
Clear Clear  
Wind Chill: -27°   Ceiling: Unl
Heat Index: -9°   Visibility: 10mi
Dew Point: -13°   Wind: 10mph
Humidity: 83%   Direction: 310°NW
Pressure: 30.49"   Gusts: NA
Location:  43.21°N, 93.08°W
Report Text: KMCW 271353Z AUTO 31009KT 10SM CLR M23/M25 A3049 RMK AO2 SLP348 T12281250
Loading
Personal Weather Stations






























Interactive Weather Map New forecast layout! Learn more

10-Day Weather Forecast

Advertisements
Track Severe Weather on mobile